createdAt,value
2023-03-21T00:02:13.639Z,10.54
2023-03-21T00:05:16.531Z,10.53
2023-03-21T00:08:19.930Z,10.61
2023-03-21T00:11:22.179Z,10.68
2023-03-21T00:14:26.128Z,10.63
2023-03-21T00:17:32.802Z,10.71
2023-03-21T00:20:35.302Z,10.74
2023-03-21T00:23:37.510Z,10.75
2023-03-21T00:26:39.828Z,10.71
2023-03-21T00:29:42.031Z,10.82
2023-03-21T00:32:55.556Z,10.87
2023-03-21T00:36:12.374Z,10.85
2023-03-21T00:39:15.423Z,10.90
2023-03-21T00:42:17.769Z,10.81
2023-03-21T00:45:22.094Z,10.78
2023-03-21T00:48:25.035Z,10.67
2023-03-21T00:51:27.445Z,10.67
2023-03-21T00:54:32.572Z,10.47
2023-03-21T00:57:39.010Z,10.54
2023-03-21T01:00:42.071Z,10.40
2023-03-21T01:03:50.934Z,10.32
2023-03-21T01:06:54.623Z,10.34
2023-03-21T01:09:56.907Z,10.26
2023-03-21T01:13:01.095Z,10.26
2023-03-21T01:16:07.372Z,10.40
2023-03-21T01:19:23.952Z,10.10
2023-03-21T01:22:27.171Z,10.16
2023-03-21T01:25:29.430Z,10.16
2023-03-21T01:28:32.012Z,10.12
2023-03-21T01:31:34.276Z,10.10
2023-03-21T01:34:38.786Z,9.96
2023-03-21T01:37:41.162Z,9.96
2023-03-21T01:40:48.748Z,9.77
2023-03-21T01:43:57.751Z,9.86
2023-03-21T01:47:13.152Z,9.79
2023-03-21T01:50:24.085Z,9.54
2023-03-21T01:53:42.869Z,9.49
2023-03-21T01:56:47.970Z,9.37
2023-03-21T01:59:54.603Z,9.30
2023-03-21T02:03:11.466Z,9.39
2023-03-21T02:06:46.884Z,9.49
2023-03-21T02:10:05.109Z,9.39
2023-03-21T02:13:11.465Z,9.37
2023-03-21T02:16:24.408Z,9.27
2023-03-21T02:20:08.879Z,9.31
2023-03-21T02:23:42.356Z,9.47
2023-03-21T02:27:25.430Z,9.58
2023-03-21T02:31:07.483Z,9.75
2023-03-21T02:34:09.753Z,9.72
2023-03-21T02:38:01.414Z,9.69
2023-03-21T02:41:40.141Z,9.58
2023-03-21T02:44:42.931Z,9.58
2023-03-21T02:47:51.244Z,9.68
2023-03-21T02:50:57.151Z,9.69
2023-03-21T02:54:26.363Z,9.65
2023-03-21T02:57:40.068Z,9.61
2023-03-21T03:00:47.540Z,9.71
2023-03-21T03:04:01.137Z,9.79
2023-03-21T03:07:53.751Z,9.93
2023-03-21T03:11:22.284Z,9.92
2023-03-21T03:15:04.840Z,9.99
2023-03-21T03:18:28.070Z,9.99
2023-03-21T03:21:47.837Z,10.00
2023-03-21T03:25:19.734Z,10.00
2023-03-21T03:28:33.334Z,10.00
2023-03-21T03:31:44.456Z,9.99
2023-03-21T03:34:56.430Z,10.00
2023-03-21T03:38:06.285Z,10.03
2023-03-21T03:41:19.846Z,9.98
2023-03-21T03:44:28.600Z,9.93
2023-03-21T03:47:50.843Z,9.95
2023-03-21T03:51:07.591Z,9.92
2023-03-21T03:54:36.528Z,9.86
2023-03-21T03:57:39.711Z,9.85
2023-03-21T04:00:42.773Z,9.86
2023-03-21T04:03:56.391Z,9.81
2023-03-21T04:07:06.442Z,9.78
2023-03-21T04:10:09.659Z,9.71
2023-03-21T04:13:16.534Z,9.72
2023-03-21T04:16:36.047Z,9.63
2023-03-21T04:19:38.754Z,9.52
2023-03-21T04:22:41.175Z,9.49
2023-03-21T04:25:55.535Z,9.44
2023-03-21T04:29:03.122Z,9.52
2023-03-21T04:32:39.690Z,9.65
2023-03-21T04:35:49.029Z,9.52
2023-03-21T04:38:52.529Z,9.65
2023-03-21T04:41:54.889Z,9.68
2023-03-21T04:44:57.346Z,9.51
2023-03-21T04:47:59.640Z,9.44
2023-03-21T04:51:02.191Z,9.49
2023-03-21T04:54:05.882Z,9.49
2023-03-21T04:57:08.496Z,9.37
2023-03-21T05:00:11.446Z,9.28
2023-03-21T05:03:19.612Z,9.18
2023-03-21T05:06:23.520Z,9.17
2023-03-21T05:09:26.040Z,9.16
2023-03-21T05:12:28.622Z,9.16
2023-03-21T05:15:31.246Z,9.11
2023-03-21T05:18:38.686Z,9.18
2023-03-21T05:21:47.609Z,9.24
2023-03-21T05:24:55.458Z,9.18
2023-03-21T05:28:13.011Z,9.27
2023-03-21T05:31:19.380Z,9.21
2023-03-21T05:34:25.646Z,9.28
2023-03-21T05:37:28.887Z,9.51
2023-03-21T05:40:31.892Z,9.62
2023-03-21T05:43:34.829Z,9.65
2023-03-21T05:46:37.519Z,9.92
2023-03-21T05:49:41.528Z,10.33
2023-03-21T05:52:44.033Z,10.28
2023-03-21T05:55:49.336Z,10.50
2023-03-21T05:59:07.432Z,11.12
2023-03-21T06:02:16.187Z,11.44
2023-03-21T06:05:19.153Z,11.42
2023-03-21T06:08:21.573Z,11.59
2023-03-21T06:11:27.375Z,12.35
2023-03-21T06:14:52.012Z,12.79
2023-03-21T06:17:58.480Z,12.75
2023-03-21T06:21:00.961Z,13.39
2023-03-21T06:24:03.749Z,13.89
2023-03-21T06:27:11.101Z,14.53
2023-03-21T06:30:37.375Z,15.12
2023-03-21T06:34:00.297Z,15.45
2023-03-21T06:37:10.384Z,15.97
2023-03-21T06:40:16.085Z,16.48
2023-03-21T06:43:18.755Z,16.48
2023-03-21T06:46:21.985Z,16.61
2023-03-21T06:49:24.910Z,17.22
2023-03-21T06:52:30.769Z,17.45
2023-03-21T06:55:33.503Z,18.31
2023-03-21T06:58:37.080Z,18.73
2023-03-21T07:01:43.740Z,18.93
2023-03-21T07:04:46.199Z,19.47
2023-03-21T07:07:54.660Z,19.78
2023-03-21T07:11:02.771Z,20.33
2023-03-21T07:14:12.731Z,20.46
2023-03-21T07:17:30.806Z,20.91
2023-03-21T07:20:37.121Z,20.95
2023-03-21T07:23:40.531Z,21.38
2023-03-21T07:26:45.895Z,21.81
2023-03-21T07:29:48.526Z,22.24
2023-03-21T07:32:51.499Z,22.24
2023-03-21T07:35:55.582Z,22.12
2023-03-21T07:39:01.013Z,22.97
2023-03-21T07:42:04.017Z,22.99
2023-03-21T07:45:16.529Z,23.12
2023-03-21T07:48:24.905Z,23.71
2023-03-21T07:51:27.573Z,24.17
2023-03-21T07:54:30.511Z,24.24
2023-03-21T07:57:32.781Z,24.68
2023-03-21T08:00:36.064Z,25.03
2023-03-21T08:03:38.855Z,25.74
2023-03-21T08:06:41.823Z,25.90
2023-03-21T08:09:54.777Z,25.08
2023-03-21T08:12:57.152Z,23.30
2023-03-21T08:15:59.502Z,23.05
2023-03-21T08:19:02.575Z,22.20
2023-03-21T08:22:08.701Z,21.76
2023-03-21T08:25:18.507Z,21.59
2023-03-21T08:28:22.937Z,21.55
2023-03-21T08:31:34.160Z,21.59
2023-03-21T08:34:40.031Z,21.35
2023-03-21T08:37:43.757Z,21.39
2023-03-21T08:40:46.380Z,22.24
2023-03-21T08:43:52.004Z,23.32
2023-03-21T08:46:54.347Z,23.04
2023-03-21T08:49:59.162Z,23.92
2023-03-21T08:53:01.948Z,23.70
2023-03-21T08:56:07.566Z,23.52
2023-03-21T08:59:10.207Z,22.97
2023-03-21T09:02:16.763Z,22.77
2023-03-21T09:05:19.623Z,22.69
2023-03-21T09:08:23.537Z,22.64
2023-03-21T09:11:32.750Z,23.67
2023-03-21T09:14:35.483Z,25.49
2023-03-21T09:17:42.522Z,26.22
2023-03-21T09:20:47.348Z,24.78
2023-03-21T09:23:56.354Z,24.71
2023-03-21T09:26:59.560Z,25.74
2023-03-21T09:30:02.001Z,26.04
2023-03-21T09:33:13.151Z,25.03
2023-03-21T09:36:16.349Z,24.76
2023-03-21T09:39:21.592Z,25.09
2023-03-21T09:42:59.755Z,24.59
2023-03-21T09:46:24.683Z,24.95
2023-03-21T09:49:34.936Z,25.74
2023-03-21T09:52:58.931Z,25.06
2023-03-21T09:56:07.414Z,24.51
2023-03-21T09:59:43.508Z,24.41
2023-03-21T10:02:56.956Z,24.92
2023-03-21T10:06:04.343Z,24.98
2023-03-21T10:09:24.181Z,25.02
2023-03-21T10:12:30.723Z,24.89
2023-03-21T10:15:33.437Z,25.06
2023-03-21T10:18:37.809Z,25.37
2023-03-21T10:22:03.418Z,25.47
2023-03-21T10:25:10.631Z,25.87
2023-03-21T10:28:27.362Z,25.88
2023-03-21T10:31:36.253Z,26.93
2023-03-21T10:34:44.033Z,27.00
2023-03-21T10:37:47.138Z,27.58
2023-03-21T10:40:51.928Z,28.94
2023-03-21T10:44:16.578Z,30.13
2023-03-21T10:47:30.935Z,32.17
2023-03-21T10:50:33.869Z,32.85
2023-03-21T10:53:40.681Z,31.49
2023-03-21T10:56:51.766Z,28.36
2023-03-21T11:00:17.189Z,30.37
2023-03-21T11:03:36.494Z,32.10
2023-03-21T11:06:41.596Z,33.78
2023-03-21T11:09:56.185Z,30.79
2023-03-21T11:13:03.996Z,28.05
2023-03-21T11:16:15.094Z,26.32
2023-03-21T11:19:37.605Z,25.99
2023-03-21T11:22:43.497Z,29.56
2023-03-21T11:25:51.312Z,32.32
2023-03-21T11:28:54.217Z,32.41
2023-03-21T11:32:15.875Z,33.54
2023-03-21T11:35:24.447Z,34.09
2023-03-21T11:38:31.947Z,33.56
2023-03-21T11:41:34.801Z,33.13
2023-03-21T11:44:45.583Z,34.95
2023-03-21T11:47:52.964Z,33.47
2023-03-21T11:51:08.121Z,35.34
2023-03-21T11:54:53.353Z,32.89
2023-03-21T11:58:19.958Z,34.95
2023-03-21T12:01:49.832Z,34.85
2023-03-21T12:05:05.953Z,34.59
2023-03-21T12:08:46.085Z,33.24
2023-03-21T12:12:07.537Z,33.64
2023-03-21T12:15:24.675Z,32.51
2023-03-21T12:18:58.097Z,29.16
2023-03-21T12:22:10.261Z,27.95
2023-03-21T12:25:42.376Z,28.64
2023-03-21T12:28:56.570Z,28.95
2023-03-21T12:32:20.702Z,28.26
2023-03-21T12:35:44.685Z,30.65
2023-03-21T12:38:47.806Z,32.46
2023-03-21T12:42:04.187Z,28.87
2023-03-21T12:45:20.502Z,30.88
2023-03-21T12:48:48.360Z,32.92
2023-03-21T12:52:05.748Z,30.38
2023-03-21T12:55:21.744Z,28.35
2023-03-21T12:58:28.779Z,26.55
2023-03-21T13:01:35.907Z,29.14
2023-03-21T13:04:49.983Z,26.70
2023-03-21T13:07:57.194Z,25.54
2023-03-21T13:11:01.443Z,24.88
2023-03-21T13:14:10.580Z,23.76
2023-03-21T13:17:37.232Z,23.02
2023-03-21T13:20:49.399Z,24.92
2023-03-21T13:24:01.313Z,28.20
2023-03-21T13:27:28.513Z,28.91
2023-03-21T13:30:32.563Z,30.95
2023-03-21T13:33:35.711Z,31.97
2023-03-21T13:36:45.574Z,28.33
2023-03-21T13:39:49.966Z,25.67
2023-03-21T13:42:55.377Z,23.93
2023-03-21T13:46:07.451Z,22.43
2023-03-21T13:49:09.781Z,24.86
2023-03-21T13:52:12.228Z,23.11
2023-03-21T13:55:36.545Z,24.03
2023-03-21T13:58:50.290Z,23.60
2023-03-21T14:02:33.027Z,25.80
2023-03-21T14:05:37.481Z,27.35
2023-03-21T14:08:42.287Z,26.15
2023-03-21T14:11:47.259Z,28.30
2023-03-21T14:14:52.611Z,29.52
2023-03-21T14:18:16.068Z,29.46
2023-03-21T14:21:33.183Z,29.96
2023-03-21T14:24:35.555Z,30.71
2023-03-21T14:27:38.213Z,30.81
2023-03-21T14:30:42.639Z,31.66
2023-03-21T14:33:54.162Z,31.46
2023-03-21T14:36:58.656Z,30.35
2023-03-21T14:40:07.220Z,30.33
2023-03-21T14:43:11.797Z,29.62
2023-03-21T14:46:14.197Z,30.34
2023-03-21T14:49:32.979Z,29.61
2023-03-21T14:52:35.509Z,30.88
2023-03-21T14:55:52.597Z,30.68
2023-03-21T14:58:56.043Z,30.23
2023-03-21T15:02:00.045Z,30.27
2023-03-21T15:05:21.937Z,30.85
2023-03-21T15:08:26.696Z,30.71
2023-03-21T15:11:32.526Z,30.00
2023-03-21T15:14:37.536Z,29.55
2023-03-21T15:17:39.852Z,29.51
2023-03-21T15:20:42.579Z,28.94
2023-03-21T15:23:48.132Z,29.08
2023-03-21T15:26:50.863Z,29.25
2023-03-21T15:29:57.083Z,29.29
2023-03-21T15:33:07.601Z,28.90
2023-03-21T15:36:10.356Z,28.98
2023-03-21T15:39:20.394Z,29.07
2023-03-21T15:42:33.959Z,26.82
2023-03-21T15:45:47.183Z,26.29
2023-03-21T15:48:49.441Z,25.58
2023-03-21T15:52:07.549Z,25.90
2023-03-21T15:55:36.216Z,25.33
2023-03-21T15:58:44.030Z,25.13
2023-03-21T16:01:51.080Z,24.58
2023-03-21T16:05:26.347Z,24.31
2023-03-21T16:08:32.554Z,23.86
2023-03-21T16:11:49.491Z,23.28
2023-03-21T16:14:51.773Z,23.28
2023-03-21T16:17:57.639Z,22.54
2023-03-21T16:20:59.885Z,21.31
2023-03-21T16:24:02.295Z,20.37
2023-03-21T16:27:04.579Z,19.96
2023-03-21T16:30:09.461Z,19.85
2023-03-21T16:33:13.466Z,20.35
2023-03-21T16:36:18.668Z,20.06
2023-03-21T16:39:23.171Z,19.30
2023-03-21T16:42:25.517Z,18.07
2023-03-21T16:45:30.450Z,17.59
2023-03-21T16:48:32.718Z,17.23
2023-03-21T16:51:36.696Z,17.05
2023-03-21T16:54:40.425Z,16.99
2023-03-21T16:57:43.430Z,16.79
2023-03-21T17:00:45.668Z,16.41
2023-03-21T17:03:48.499Z,16.27
2023-03-21T17:06:53.200Z,16.21
2023-03-21T17:09:55.604Z,16.10
2023-03-21T17:12:58.105Z,15.92
2023-03-21T17:16:00.366Z,15.88
2023-03-21T17:19:04.337Z,15.65
2023-03-21T17:22:07.115Z,15.49
2023-03-21T17:25:09.395Z,15.32
2023-03-21T17:28:11.735Z,15.17
2023-03-21T17:31:19.260Z,15.04
2023-03-21T17:34:21.745Z,14.88
2023-03-21T17:37:26.117Z,14.75
2023-03-21T17:40:32.737Z,14.60
2023-03-21T17:43:34.915Z,14.42
2023-03-21T17:46:37.480Z,14.33
2023-03-21T17:49:39.708Z,14.08
2023-03-21T17:52:41.944Z,13.95
2023-03-21T17:55:44.239Z,13.71
2023-03-21T17:58:47.318Z,13.60
2023-03-21T18:01:49.532Z,13.07
2023-03-21T18:04:51.754Z,12.76
2023-03-21T18:08:09.406Z,12.56
2023-03-21T18:11:13.816Z,12.35
2023-03-21T18:14:19.081Z,12.30
2023-03-21T18:17:22.800Z,12.16
2023-03-21T18:20:50.530Z,12.07
2023-03-21T18:23:51.400Z,12.05
2023-03-21T18:26:54.524Z,11.90
2023-03-21T18:33:18.930Z,11.66
2023-03-21T18:36:25.628Z,11.39
2023-03-21T18:39:28.508Z,10.74
2023-03-21T18:42:31.164Z,10.78
2023-03-21T18:45:33.818Z,10.65
2023-03-21T18:48:36.605Z,10.49
2023-03-21T18:51:39.931Z,10.40
2023-03-21T18:54:42.903Z,10.39
2023-03-21T18:57:45.904Z,10.43
2023-03-21T19:00:50.093Z,10.47
2023-03-21T19:04:16.515Z,10.50
2023-03-21T19:07:21.919Z,10.53
2023-03-21T19:10:24.536Z,10.63
2023-03-21T19:13:27.279Z,10.60
2023-03-21T19:16:32.631Z,10.74
2023-03-21T19:19:42.123Z,10.84
2023-03-21T19:22:44.779Z,10.91
2023-03-21T19:25:47.686Z,11.00
2023-03-21T19:28:49.883Z,10.88
2023-03-21T19:31:52.554Z,10.74
2023-03-21T19:34:54.827Z,10.26
2023-03-21T19:37:57.203Z,10.17
2023-03-21T19:41:01.565Z,9.98
2023-03-21T19:44:05.272Z,9.92
2023-03-21T19:47:07.570Z,9.89
2023-03-21T19:53:32.492Z,9.86
2023-03-21T19:56:35.001Z,9.92
2023-03-21T19:59:37.771Z,9.74
2023-03-21T20:02:40.209Z,9.62
2023-03-21T20:05:43.077Z,9.52
2023-03-21T20:12:07.886Z,9.41
2023-03-21T20:15:17.718Z,9.55
2023-03-21T20:18:24.020Z,9.61
2023-03-21T20:21:34.839Z,9.77
2023-03-21T20:24:38.822Z,9.77
2023-03-21T20:27:43.468Z,9.86
2023-03-21T20:30:50.993Z,9.21
2023-03-21T20:33:53.263Z,9.11
2023-03-21T20:36:55.565Z,8.87
2023-03-21T20:39:57.776Z,8.96
2023-03-21T20:43:32.062Z,8.90
2023-03-21T20:46:25.626Z,8.97
2023-03-21T20:49:28.419Z,8.91
2023-03-21T20:53:04.540Z,8.76
2023-03-21T20:55:53.763Z,8.73
2023-03-21T20:59:12.469Z,8.67
2023-03-21T21:02:17.943Z,8.79
2023-03-21T21:05:35.711Z,9.07
2023-03-21T21:08:38.749Z,9.17
2023-03-21T21:15:03.574Z,9.03
2023-03-21T21:18:07.612Z,8.90
2023-03-21T21:21:10.663Z,8.99
2023-03-21T21:24:14.581Z,9.04
2023-03-21T21:27:17.143Z,9.11
2023-03-21T21:30:20.085Z,9.10
2023-03-21T21:33:22.857Z,9.04
2023-03-21T21:36:25.116Z,9.18
2023-03-21T21:39:27.679Z,9.14
2023-03-21T21:42:29.954Z,9.20
2023-03-21T21:45:32.338Z,9.23
2023-03-21T21:48:34.644Z,9.18
2023-03-21T21:51:36.950Z,9.16
2023-03-21T21:54:45.487Z,9.17
2023-03-21T21:57:50.576Z,9.01
2023-03-21T22:00:53.764Z,9.04
2023-03-21T22:03:57.632Z,8.94
2023-03-21T22:06:59.892Z,8.86
2023-03-21T22:10:02.126Z,8.90
2023-03-21T22:13:04.372Z,8.81
2023-03-21T22:16:07.013Z,8.87
2023-03-21T22:19:09.501Z,8.80
2023-03-21T22:22:11.696Z,8.87
2023-03-21T22:25:16.289Z,8.83
2023-03-21T22:28:22.066Z,8.73
2023-03-21T22:31:26.082Z,8.75
2023-03-21T22:34:28.460Z,8.67
2023-03-21T22:37:34.751Z,8.69
2023-03-21T22:40:37.511Z,8.65
2023-03-21T22:43:40.157Z,8.65
2023-03-21T22:46:42.427Z,8.55
2023-03-21T22:49:45.601Z,8.52
2023-03-21T22:52:47.794Z,8.46
2023-03-21T22:55:50.107Z,8.38
2023-03-21T22:58:52.613Z,8.39
2023-03-21T23:01:55.349Z,8.18
2023-03-21T23:04:57.574Z,8.08
2023-03-21T23:07:59.788Z,7.95
2023-03-21T23:11:09.686Z,8.05
2023-03-21T23:14:13.813Z,7.95
2023-03-21T23:17:16.409Z,7.91
2023-03-21T23:20:18.673Z,8.01
2023-03-21T23:23:20.906Z,7.87
2023-03-21T23:26:23.894Z,7.70
2023-03-21T23:29:26.265Z,7.66
2023-03-21T23:32:28.590Z,7.54
2023-03-21T23:35:35.335Z,7.37
2023-03-21T23:38:37.581Z,7.32
2023-03-21T23:41:42.736Z,7.20
2023-03-21T23:44:44.942Z,7.29
2023-03-21T23:47:47.123Z,7.20
2023-03-21T23:50:49.365Z,7.08
2023-03-21T23:53:53.349Z,7.03
2023-03-21T23:56:55.891Z,6.77
2023-03-21T23:59:58.125Z,6.58
